Portada
METAR-TAF:

METAR-TAF

Aeroports :

Bagé, Rio Grande do Sul, Brasil

latitud: 31-21S, longitud: 054-07W, altitud: 180 m

Observació

L'informe es va fer fa 6 minuts, a les 16:00 UTC
Vent 7 kt del Nord-Est, variant entre Nord i Est/Nord-Est
Temperatura 27°C
Humitat 58%
Pressió 1014 hPa
Visibilitat 10 km o més
Cel ennuvolat a una alçada de 3800 ft
Cel cobert a una alçada de 4300 ft

METAR: SBBG 121600Z AUTO 04007KT 360V070 9999 BKN038 OVC043 27/18 Q1014

Hora: 14:06 (16:06 UTC)

Pronòstic

L'informe es va fer fa 6 hores i 40 minuts, a les 09:26 UTC
Pronòstic vàlid del 12 a les 12 UTC al 13 a les 12 UTC
Vent 13 kt del Est/Nord-Est
Visibilitat 10 km o més
sense núvols per sota de 1500 mi sense presència de cumulonimbus.
Evolucionant progressivament
l' 13 a les 02 UTC al 13 a les 04 UTC
Vent 10 kt del Nord/Nord-Est

TAF: SBBG 120926Z 1212/1312 07013KT CAVOK TX29/1218Z TN18/1308Z BECMG 1302/1304 03010KT RMK PDW

Observacions i pronòstics meteorològics de més de 4000 aeroports (METAR i TAF).

Les estacions disponibles són els punts grocs i vermells al mapa.

Posi el ratolí al punt desitjat per veure el nom de l'estació.

Feu clic per veure les observacions i els pronòstics meteorològics.

Per canviar el mapa: feu clic els botons verds amb una creu de color negre per apropar; al botó verd amb un guió per allunyar la imatge; o en les fletxes verdes per a mapes adjacents.


METAR-TAF: